createdAt,value
2022-08-25T00:00:22.648Z,0.00
2022-08-25T00:01:22.597Z,0.00
2022-08-25T00:02:22.528Z,0.00
2022-08-25T00:03:22.456Z,0.00
2022-08-25T00:04:26.414Z,0.00
2022-08-25T00:05:22.365Z,0.00
2022-08-25T00:06:22.263Z,0.00
2022-08-25T00:07:22.160Z,1.00
2022-08-25T00:08:22.086Z,1.00
2022-08-25T00:09:22.024Z,1.00
2022-08-25T00:10:22.024Z,0.00
2022-08-25T00:11:21.934Z,0.00
2022-08-25T00:12:21.886Z,0.00
2022-08-25T00:13:21.809Z,0.00
2022-08-25T00:14:21.759Z,0.00
2022-08-25T00:15:21.679Z,0.00
2022-08-25T00:16:21.972Z,0.00
2022-08-25T00:17:21.568Z,0.00
2022-08-25T00:18:21.505Z,0.00
2022-08-25T00:19:21.426Z,0.00
2022-08-25T00:20:21.359Z,0.00
2022-08-25T00:21:21.311Z,0.00
2022-08-25T00:22:21.244Z,0.00
2022-08-25T00:23:21.178Z,0.00
2022-08-25T00:24:21.122Z,0.00
2022-08-25T00:25:21.033Z,0.00
2022-08-25T00:26:21.018Z,0.00
2022-08-25T00:27:20.913Z,0.00
2022-08-25T00:28:21.622Z,0.00
2022-08-25T00:29:20.823Z,0.00
2022-08-25T00:30:20.717Z,0.00
2022-08-25T00:31:20.682Z,0.00
2022-08-25T00:32:20.589Z,0.00
2022-08-25T00:33:20.527Z,0.00
2022-08-25T00:34:21.681Z,0.00
2022-08-25T00:35:20.396Z,0.00
2022-08-25T00:36:20.340Z,0.00
2022-08-25T00:37:20.280Z,0.00
2022-08-25T00:38:20.199Z,0.00
2022-08-25T00:39:20.169Z,0.00
2022-08-25T00:40:20.157Z,0.00
2022-08-25T00:41:20.025Z,0.00
2022-08-25T00:42:19.958Z,0.00
2022-08-25T00:43:19.887Z,0.00
2022-08-25T00:44:19.822Z,0.00
2022-08-25T00:45:19.775Z,0.00
2022-08-25T00:46:19.823Z,0.00
2022-08-25T00:47:19.623Z,0.00
2022-08-25T00:48:19.562Z,0.00
2022-08-25T00:49:25.292Z,0.00
2022-08-25T00:50:19.453Z,0.00
2022-08-25T00:51:19.380Z,0.00
2022-08-25T00:52:20.075Z,0.00
2022-08-25T00:53:19.238Z,0.00
2022-08-25T00:54:19.173Z,0.00
2022-08-25T00:55:19.109Z,0.00
2022-08-25T00:56:19.067Z,0.00
2022-08-25T00:57:18.985Z,0.00
2022-08-25T00:58:18.964Z,0.00
2022-08-25T00:59:18.867Z,0.00
2022-08-25T01:00:18.807Z,0.00
2022-08-25T01:01:18.776Z,0.00
2022-08-25T01:02:18.693Z,0.00
2022-08-25T01:03:18.608Z,0.00
2022-08-25T01:04:19.328Z,0.00
2022-08-25T01:05:18.485Z,0.00
2022-08-25T01:06:18.407Z,0.00
2022-08-25T01:07:18.340Z,0.00
2022-08-25T01:08:18.272Z,0.00
2022-08-25T01:09:18.226Z,0.00
2022-08-25T01:10:19.362Z,0.00
2022-08-25T01:11:18.095Z,0.00
2022-08-25T01:12:18.028Z,0.00
2022-08-25T01:13:17.956Z,0.00
2022-08-25T01:14:17.889Z,0.00
2022-08-25T01:15:17.825Z,0.00
2022-08-25T01:16:17.895Z,0.00
2022-08-25T01:17:17.699Z,0.00
2022-08-25T01:18:17.634Z,0.00
2022-08-25T01:19:17.592Z,0.00
2022-08-25T01:20:17.518Z,0.00
2022-08-25T01:21:17.463Z,0.00
2022-08-25T01:22:17.450Z,0.00
2022-08-25T01:23:17.312Z,0.00
2022-08-25T01:24:17.255Z,0.00
2022-08-25T01:25:17.196Z,0.00
2022-08-25T01:26:17.128Z,0.00
2022-08-25T01:27:17.066Z,0.00
2022-08-25T01:28:16.992Z,0.00
2022-08-25T01:29:16.975Z,0.00
2022-08-25T01:30:16.877Z,0.00
2022-08-25T01:31:23.711Z,0.00
2022-08-25T01:32:16.735Z,0.00
2022-08-25T01:33:16.667Z,0.00
2022-08-25T01:34:16.624Z,0.00
2022-08-25T01:35:16.565Z,0.00
2022-08-25T01:36:16.476Z,0.00
2022-08-25T01:37:16.423Z,0.00
2022-08-25T01:38:16.359Z,0.00
2022-08-25T01:39:16.281Z,0.00
2022-08-25T01:40:17.467Z,0.00
2022-08-25T01:41:16.155Z,0.00
2022-08-25T01:42:16.084Z,0.00
2022-08-25T01:43:16.034Z,0.00
2022-08-25T01:44:16.634Z,0.00
2022-08-25T01:45:15.929Z,0.00
2022-08-25T01:46:16.654Z,0.00
2022-08-25T01:47:15.783Z,0.00
2022-08-25T01:48:15.705Z,0.00
2022-08-25T01:49:15.657Z,0.00
2022-08-25T01:50:15.575Z,0.00
2022-08-25T01:51:15.519Z,0.00
2022-08-25T01:52:15.461Z,0.00
2022-08-25T01:53:15.391Z,0.00
2022-08-25T01:54:15.350Z,0.00
2022-08-25T01:55:15.262Z,0.00
2022-08-25T01:56:15.203Z,0.00
2022-08-25T01:57:15.160Z,0.00
2022-08-25T01:58:17.351Z,0.00
2022-08-25T01:59:15.011Z,0.00
2022-08-25T02:00:14.934Z,0.00
2022-08-25T02:01:14.934Z,0.00
2022-08-25T02:02:14.805Z,1.00
2022-08-25T02:03:17.531Z,0.00
2022-08-25T02:04:15.465Z,0.00
2022-08-25T02:05:14.639Z,0.00
2022-08-25T02:06:14.623Z,0.00
2022-08-25T02:07:14.493Z,0.00
2022-08-25T02:08:14.450Z,0.00
2022-08-25T02:09:14.381Z,0.00
2022-08-25T02:10:14.343Z,0.00
2022-08-25T02:11:14.229Z,0.00
2022-08-25T02:12:14.176Z,0.00
2022-08-25T02:13:14.367Z,0.00
2022-08-25T02:14:14.022Z,0.00
2022-08-25T02:15:14.001Z,0.00
2022-08-25T02:16:14.924Z,0.00
2022-08-25T02:17:13.868Z,0.00
2022-08-25T02:18:13.811Z,0.00
2022-08-25T02:19:13.723Z,0.00
2022-08-25T02:20:13.643Z,0.00
2022-08-25T02:21:13.594Z,0.00
2022-08-25T02:22:15.064Z,0.00
2022-08-25T02:23:13.464Z,0.00
2022-08-25T02:24:13.401Z,0.00
2022-08-25T02:25:13.327Z,0.00
2022-08-25T02:26:13.290Z,0.00
2022-08-25T02:27:13.216Z,0.00
2022-08-25T02:28:13.415Z,0.00
2022-08-25T02:29:13.071Z,0.00
2022-08-25T02:30:12.991Z,0.00
2022-08-25T02:31:12.974Z,0.00
2022-08-25T02:32:12.882Z,0.00
2022-08-25T02:33:12.804Z,0.00
2022-08-25T02:34:12.799Z,0.00
2022-08-25T02:35:12.719Z,0.00
2022-08-25T02:36:12.633Z,0.00
2022-08-25T02:37:12.548Z,0.00
2022-08-25T02:38:12.524Z,0.00
2022-08-25T02:39:12.449Z,0.00
2022-08-25T02:40:13.200Z,0.00
2022-08-25T02:41:12.289Z,0.00
2022-08-25T02:42:12.231Z,0.00
2022-08-25T02:43:12.159Z,0.00
2022-08-25T02:44:12.130Z,0.00
2022-08-25T02:45:12.042Z,0.00
2022-08-25T02:46:13.255Z,0.00
2022-08-25T02:47:11.909Z,0.00
2022-08-25T02:48:11.871Z,0.00
2022-08-25T02:49:11.819Z,0.00
2022-08-25T02:50:11.751Z,0.00
2022-08-25T02:51:11.642Z,0.00
2022-08-25T02:52:11.598Z,0.00
2022-08-25T02:53:11.526Z,0.00
2022-08-25T02:54:11.460Z,0.00
2022-08-25T02:55:11.382Z,0.00
2022-08-25T02:56:11.332Z,0.00
2022-08-25T02:57:11.258Z,0.00
2022-08-25T02:58:11.214Z,0.00
2022-08-25T02:59:11.158Z,0.00
2022-08-25T03:00:11.098Z,0.00
2022-08-25T03:01:11.022Z,0.00
2022-08-25T03:02:10.953Z,0.00
2022-08-25T03:03:10.865Z,0.00
2022-08-25T03:04:11.608Z,0.00
2022-08-25T03:05:10.787Z,0.00
2022-08-25T03:06:10.669Z,0.00
2022-08-25T03:07:10.640Z,0.00
2022-08-25T03:08:10.554Z,0.00
2022-08-25T03:09:10.479Z,0.00
2022-08-25T03:10:10.436Z,0.00
2022-08-25T03:11:10.359Z,0.00
2022-08-25T03:12:10.293Z,0.00
2022-08-25T03:13:10.257Z,0.00
2022-08-25T03:14:10.154Z,0.00
2022-08-25T03:15:12.921Z,0.00
2022-08-25T03:16:11.374Z,0.00
2022-08-25T03:17:10.038Z,0.00
2022-08-25T03:18:09.892Z,0.00
2022-08-25T03:19:09.832Z,0.00
2022-08-25T03:20:09.782Z,0.00
2022-08-25T03:21:09.727Z,0.00
2022-08-25T03:22:09.664Z,0.00
2022-08-25T03:23:09.597Z,0.00
2022-08-25T03:24:09.529Z,0.00
2022-08-25T03:25:09.536Z,0.00
2022-08-25T03:26:09.384Z,0.00
2022-08-25T03:27:09.319Z,0.00
2022-08-25T03:28:11.565Z,0.00
2022-08-25T03:29:09.200Z,0.00
2022-08-25T03:30:09.126Z,0.00
2022-08-25T03:31:09.076Z,0.00
2022-08-25T03:32:09.023Z,0.00
2022-08-25T03:33:08.931Z,0.00
2022-08-25T03:34:09.158Z,0.00
2022-08-25T03:35:08.839Z,0.00
2022-08-25T03:36:08.750Z,0.00
2022-08-25T03:37:08.683Z,0.00
2022-08-25T03:38:08.607Z,0.00
2022-08-25T03:39:08.556Z,0.00
2022-08-25T03:40:08.546Z,0.00
2022-08-25T03:41:08.449Z,0.00
2022-08-25T03:42:08.370Z,0.00
2022-08-25T03:43:08.300Z,0.00
2022-08-25T03:44:08.214Z,0.00
2022-08-25T03:45:08.166Z,0.00
2022-08-25T03:46:08.215Z,0.00
2022-08-25T03:47:08.027Z,0.00
2022-08-25T03:48:07.977Z,0.00
2022-08-25T03:49:07.895Z,0.00
2022-08-25T03:50:07.862Z,0.00
2022-08-25T03:51:07.717Z,1.00
2022-08-25T03:52:10.081Z,0.00
2022-08-25T03:53:07.638Z,1.00
2022-08-25T03:54:07.519Z,1.00
2022-08-25T03:55:07.454Z,1.00
2022-08-25T03:56:07.406Z,2.00
2022-08-25T03:57:07.350Z,2.00
2022-08-25T03:58:08.476Z,1.00
2022-08-25T03:59:07.210Z,1.00
2022-08-25T04:00:07.150Z,2.00
2022-08-25T04:01:07.098Z,1.00
2022-08-25T04:02:07.062Z,2.00
2022-08-25T04:03:06.950Z,4.00
2022-08-25T04:04:06.880Z,5.00
2022-08-25T04:05:06.828Z,5.00
2022-08-25T04:06:06.758Z,3.00
2022-08-25T04:07:06.684Z,4.00
2022-08-25T04:08:06.839Z,9.00
2022-08-25T04:09:06.547Z,8.00
2022-08-25T04:10:06.521Z,11.00
2022-08-25T04:11:06.424Z,14.00
2022-08-25T04:12:06.364Z,14.00
2022-08-25T04:13:06.292Z,10.00
2022-08-25T04:14:06.238Z,17.00
2022-08-25T04:15:06.160Z,24.00
2022-08-25T04:16:07.345Z,24.00
2022-08-25T04:17:06.074Z,24.00
2022-08-25T04:18:06.133Z,29.00
2022-08-25T04:19:05.916Z,33.00
2022-08-25T04:20:05.865Z,41.00
2022-08-25T04:21:05.806Z,45.00
2022-08-25T04:22:05.765Z,49.00
2022-08-25T04:23:05.643Z,46.00
2022-08-25T04:24:05.617Z,57.00
2022-08-25T04:25:05.514Z,59.00
2022-08-25T04:26:05.490Z,65.00
2022-08-25T04:27:05.415Z,75.00
2022-08-25T04:28:05.454Z,77.00
2022-08-25T04:29:05.250Z,82.00
2022-08-25T04:30:05.208Z,90.00
2022-08-25T04:31:05.122Z,98.00
2022-08-25T04:32:05.168Z,98.00
2022-08-25T04:33:05.005Z,108.00
2022-08-25T04:34:13.460Z,113.00
2022-08-25T04:35:04.875Z,121.00
2022-08-25T04:36:08.796Z,131.00
2022-08-25T04:37:04.747Z,136.00
2022-08-25T04:38:04.892Z,147.00
2022-08-25T04:39:04.609Z,154.00
2022-08-25T04:40:06.414Z,165.00
2022-08-25T04:41:04.480Z,173.00
2022-08-25T04:42:04.411Z,180.00
2022-08-25T04:43:04.356Z,189.00
2022-08-25T04:44:04.300Z,202.00
2022-08-25T04:45:04.242Z,214.00
2022-08-25T04:46:04.980Z,226.00
2022-08-25T04:47:04.099Z,238.00
2022-08-25T04:48:04.144Z,246.00
2022-08-25T04:49:03.997Z,257.00
2022-08-25T04:50:03.940Z,271.00
2022-08-25T04:51:03.853Z,281.00
2022-08-25T04:52:03.783Z,293.00
2022-08-25T04:53:03.702Z,314.00
2022-08-25T04:54:03.649Z,323.00
2022-08-25T04:55:03.570Z,335.00
2022-08-25T04:56:04.073Z,348.00
2022-08-25T04:57:03.443Z,361.00
2022-08-25T04:58:05.844Z,376.00
2022-08-25T04:59:03.330Z,390.00
2022-08-25T05:00:03.271Z,406.00
2022-08-25T05:01:03.302Z,415.00
2022-08-25T05:02:03.485Z,439.00
2022-08-25T05:03:03.076Z,450.00
2022-08-25T05:04:03.852Z,462.00
2022-08-25T05:05:02.925Z,479.00
2022-08-25T05:06:02.896Z,493.00
2022-08-25T05:07:02.790Z,509.00
2022-08-25T05:08:02.796Z,527.00
2022-08-25T05:09:02.676Z,543.00
2022-08-25T05:10:02.655Z,557.00
2022-08-25T05:11:02.556Z,573.00
2022-08-25T05:12:02.833Z,590.00
2022-08-25T05:13:02.409Z,600.00
2022-08-25T05:14:02.344Z,616.00
2022-08-25T05:15:02.287Z,630.00
2022-08-25T05:16:03.043Z,645.00
2022-08-25T05:17:02.220Z,660.00
2022-08-25T05:18:02.098Z,678.00
2022-08-25T05:19:02.033Z,693.00
2022-08-25T05:20:01.976Z,707.00
2022-08-25T05:21:01.893Z,717.00
2022-08-25T05:22:02.632Z,729.00
2022-08-25T05:23:01.762Z,740.00
2022-08-25T05:24:01.713Z,759.00
2022-08-25T05:25:01.640Z,777.00
2022-08-25T05:26:01.563Z,800.00
2022-08-25T05:27:01.504Z,824.00
2022-08-25T05:28:01.463Z,846.00
2022-08-25T05:29:01.390Z,867.00
2022-08-25T05:30:01.317Z,889.00
2022-08-25T05:31:01.260Z,912.00
2022-08-25T05:32:01.236Z,937.00
2022-08-25T05:33:01.118Z,964.00
2022-08-25T05:34:01.073Z,984.00
2022-08-25T05:35:01.001Z,1012.00
2022-08-25T05:36:00.935Z,1041.00
2022-08-25T05:37:00.853Z,1066.00
2022-08-25T05:38:00.801Z,1101.00
2022-08-25T05:39:00.727Z,1129.00
2022-08-25T05:40:00.756Z,1160.00
2022-08-25T05:41:00.600Z,1193.00
2022-08-25T05:42:01.176Z,1236.00
2022-08-25T05:43:00.485Z,1280.00
2022-08-25T05:44:00.416Z,1337.00
2022-08-25T05:45:02.607Z,1383.00
2022-08-25T05:46:06.931Z,1421.00
2022-08-25T05:47:02.970Z,1472.00
2022-08-25T05:48:08.181Z,1535.00
2022-08-25T05:49:00.455Z,1643.00
2022-08-25T05:50:01.218Z,1772.00
2022-08-25T05:51:01.576Z,1913.00
2022-08-25T05:52:04.846Z,2042.00
2022-08-25T05:53:00.894Z,2208.00
2022-08-25T05:54:01.260Z,2419.00
2022-08-25T05:54:59.726Z,2568.00
2022-08-25T05:55:59.650Z,2636.00
2022-08-25T05:56:59.590Z,2689.00
2022-08-25T05:58:01.074Z,2252.00
2022-08-25T05:58:59.454Z,2409.00
2022-08-25T05:59:59.373Z,3310.00
2022-08-25T06:00:59.367Z,3842.00
2022-08-25T06:01:59.247Z,3820.00
2022-08-25T06:03:00.918Z,3883.00
2022-08-25T06:03:59.503Z,3873.00
2022-08-25T06:04:59.334Z,3851.00
2022-08-25T06:05:59.158Z,3935.00
2022-08-25T06:06:58.939Z,3904.00
2022-08-25T06:07:59.326Z,3961.00
2022-08-25T06:08:58.809Z,4025.00
2022-08-25T06:09:59.945Z,4079.00
2022-08-25T06:10:58.659Z,4079.00
2022-08-25T06:11:58.595Z,4145.00
2022-08-25T06:12:58.545Z,4182.00
2022-08-25T06:13:58.472Z,4226.00
2022-08-25T06:14:58.428Z,4267.00
2022-08-25T06:15:58.407Z,4330.00
2022-08-25T06:16:58.281Z,4374.00
2022-08-25T06:18:01.722Z,4416.00
2022-08-25T06:18:58.165Z,4464.00
2022-08-25T06:19:58.851Z,4501.00
2022-08-25T06:20:58.037Z,4572.00
2022-08-25T06:21:57.983Z,4636.00
2022-08-25T06:22:57.906Z,4679.00
2022-08-25T06:23:57.844Z,4705.00
2022-08-25T06:24:57.783Z,4750.00
2022-08-25T06:25:59.822Z,4818.00
2022-08-25T06:26:58.371Z,4878.00
2022-08-25T06:27:57.595Z,4918.00
2022-08-25T06:28:57.523Z,4936.00
2022-08-25T06:29:57.506Z,4958.00
2022-08-25T06:30:57.384Z,5006.00
2022-08-25T06:31:57.422Z,5054.00
2022-08-25T06:32:57.294Z,5056.00
2022-08-25T06:33:58.427Z,5115.00
2022-08-25T06:34:57.155Z,5192.00
2022-08-25T06:35:57.120Z,5104.00
2022-08-25T06:36:57.030Z,5167.00
2022-08-25T06:37:56.960Z,5136.00
2022-08-25T06:38:56.937Z,5282.00
2022-08-25T06:39:56.921Z,5324.00
2022-08-25T06:40:56.776Z,5520.00
2022-08-25T06:41:56.690Z,5028.00
2022-08-25T06:42:56.668Z,4832.00
2022-08-25T06:43:57.532Z,5121.00
2022-08-25T06:44:56.532Z,5192.00
2022-08-25T06:45:57.388Z,5240.00
2022-08-25T06:46:56.430Z,5490.00
2022-08-25T06:47:56.342Z,5602.00
2022-08-25T06:48:56.275Z,5658.00
2022-08-25T06:49:56.221Z,5749.00
2022-08-25T06:50:56.852Z,5943.00
2022-08-25T06:51:57.669Z,6330.00
2022-08-25T06:52:55.998Z,6865.00
2022-08-25T06:53:55.976Z,6973.00
2022-08-25T06:54:55.920Z,6759.00
2022-08-25T06:55:55.846Z,8495.00
2022-08-25T06:56:55.786Z,9376.00
2022-08-25T06:57:55.721Z,8974.00
2022-08-25T06:58:55.647Z,9175.00
2022-08-25T06:59:55.598Z,9237.00
2022-08-25T07:00:55.628Z,9044.00
2022-08-25T07:01:55.500Z,8522.00
2022-08-25T07:02:56.360Z,8138.00
2022-08-25T07:03:55.852Z,7805.00
2022-08-25T07:04:55.277Z,7481.00
2022-08-25T07:05:55.211Z,7360.00
2022-08-25T07:06:55.120Z,7039.00
2022-08-25T07:07:55.080Z,6900.00
2022-08-25T07:08:55.038Z,6957.00
2022-08-25T07:09:54.991Z,6930.00
2022-08-25T07:10:54.919Z,6697.00
2022-08-25T07:11:54.831Z,6357.00
2022-08-25T07:12:54.797Z,7265.00
2022-08-25T07:13:54.699Z,7534.00
2022-08-25T07:15:10.213Z,6859.00
2022-08-25T07:15:54.710Z,6760.00
2022-08-25T07:16:54.523Z,6761.00
2022-08-25T07:17:54.439Z,6710.00
2022-08-25T07:18:56.064Z,6820.00
2022-08-25T07:19:57.647Z,6783.00
2022-08-25T07:20:54.274Z,6683.00
2022-08-25T07:21:55.013Z,6619.00
2022-08-25T07:22:54.128Z,6634.00
2022-08-25T07:23:54.097Z,6815.00
2022-08-25T07:24:54.036Z,6827.00
2022-08-25T07:25:53.949Z,6743.00
2022-08-25T07:26:53.906Z,6724.00
2022-08-25T07:51:29.708Z,6593.00
2022-08-25T07:51:34.901Z,7360.00
2022-08-25T07:52:34.824Z,6299.00
2022-08-25T07:53:34.798Z,5957.00
2022-08-25T07:54:37.847Z,6575.00
2022-08-25T07:55:34.653Z,6251.00
2022-08-25T07:56:35.626Z,5954.00
2022-08-25T07:57:34.521Z,6023.00
2022-08-25T07:58:34.477Z,5851.00
2022-08-25T07:59:38.975Z,6328.00
2022-08-25T08:00:34.362Z,6563.00
2022-08-25T08:01:34.379Z,6570.00
2022-08-25T08:02:35.825Z,6642.00
2022-08-25T08:03:50.284Z,6724.00
2022-08-25T08:04:34.116Z,6688.00
2022-08-25T08:05:34.050Z,6690.00
2022-08-25T08:06:33.988Z,6746.00
2022-08-25T08:07:42.264Z,6744.00
2022-08-25T08:08:33.882Z,6583.00
2022-08-25T08:09:33.797Z,6594.00
2022-08-25T08:11:00.657Z,6679.00
2022-08-25T08:11:33.672Z,6592.00
2022-08-25T08:12:33.611Z,7161.00
2022-08-25T08:13:35.767Z,6796.00
2022-08-25T08:14:33.520Z,5342.00
2022-08-25T08:15:33.449Z,5395.00
2022-08-25T08:16:33.484Z,4937.00
2022-08-25T08:17:33.306Z,6757.00
2022-08-25T08:18:33.248Z,6809.00
2022-08-25T08:19:33.194Z,6675.00
2022-08-25T08:20:42.617Z,6621.00
2022-08-25T08:21:33.070Z,6762.00
2022-08-25T08:22:33.018Z,6909.00
2022-08-25T08:23:32.939Z,6966.00
2022-08-25T08:24:56.230Z,6726.00
2022-08-25T08:25:32.844Z,6908.00
2022-08-25T08:26:57.337Z,6872.00
2022-08-25T08:27:32.701Z,7155.00
2022-08-25T08:28:32.648Z,6862.00
2022-08-25T08:29:32.621Z,7029.00
2022-08-25T08:30:32.512Z,6944.00
2022-08-25T08:31:32.543Z,6779.00
2022-08-25T08:33:05.972Z,7002.00
2022-08-25T08:33:32.390Z,7487.00
2022-08-25T08:34:32.281Z,7735.00
2022-08-25T08:35:32.935Z,6514.00
2022-08-25T08:36:32.149Z,3876.00
2022-08-25T08:37:32.130Z,7117.00
2022-08-25T08:38:32.074Z,1512.00
2022-08-25T08:39:31.993Z,13064.00
2022-08-25T08:40:31.977Z,7836.00
2022-08-25T08:41:40.141Z,9294.00
2022-08-25T08:42:32.779Z,7517.00
2022-08-25T08:43:33.537Z,2710.00
2022-08-25T08:44:33.576Z,2493.00
2022-08-25T08:45:31.658Z,8524.00
2022-08-25T08:46:31.989Z,8103.00
2022-08-25T08:47:32.386Z,8887.00
2022-08-25T08:48:31.444Z,7897.00
2022-08-25T08:49:31.530Z,7774.00
2022-08-25T08:50:33.142Z,7426.00
2022-08-25T08:51:33.099Z,7389.00
2022-08-25T08:52:32.407Z,7076.00
2022-08-25T08:53:34.239Z,7167.00
2022-08-25T08:54:31.093Z,7131.00
2022-08-25T08:55:31.013Z,7022.00
2022-08-25T08:56:33.390Z,6951.00
2022-08-25T08:57:31.112Z,6784.00
2022-08-25T08:58:30.824Z,6804.00
2022-08-25T08:59:31.016Z,6737.00
2022-08-25T09:00:30.776Z,6749.00
2022-08-25T09:01:31.166Z,6743.00
2022-08-25T09:02:39.256Z,6763.00
2022-08-25T09:03:30.579Z,6846.00
2022-08-25T09:04:30.463Z,6732.00
2022-08-25T09:05:30.383Z,2523.00
2022-08-25T09:06:30.372Z,8640.00
2022-08-25T09:07:30.277Z,32737.00
2022-08-25T09:08:30.220Z,72915.00
2022-08-25T09:09:30.153Z,69803.00
2022-08-25T09:10:30.099Z,31206.00
2022-08-25T09:11:30.586Z,17186.00
2022-08-25T09:12:30.003Z,9450.00
2022-08-25T09:13:29.901Z,8119.00
2022-08-25T09:14:31.086Z,7377.00
2022-08-25T09:15:29.773Z,6905.00
2022-08-25T09:16:33.838Z,6863.00
2022-08-25T09:17:29.671Z,6727.00
2022-08-25T09:18:29.591Z,6658.00
2022-08-25T09:19:29.536Z,6651.00
2022-08-25T09:20:29.485Z,6578.00
2022-08-25T09:21:29.407Z,6468.00
2022-08-25T09:22:35.347Z,6433.00
2022-08-25T09:23:29.294Z,6366.00
2022-08-25T09:24:29.230Z,6354.00
2022-08-25T09:26:29.148Z,6344.00
2022-08-25T09:27:29.084Z,6323.00
2022-08-25T09:28:28.983Z,6352.00
2022-08-25T09:29:28.936Z,6396.00
2022-08-25T09:30:28.877Z,6175.00
2022-08-25T09:31:29.901Z,6426.00
2022-08-25T09:32:31.264Z,6593.00
2022-08-25T09:33:28.729Z,6641.00
2022-08-25T09:34:28.638Z,6613.00
2022-08-25T09:35:28.574Z,6311.00
2022-08-25T09:36:28.514Z,6365.00
2022-08-25T09:37:28.455Z,6138.00
2022-08-25T09:38:29.153Z,6167.00
2022-08-25T09:39:28.413Z,6066.00
2022-08-25T09:40:28.320Z,5992.00
2022-08-25T09:41:28.255Z,2200.00
2022-08-25T09:42:28.149Z,9942.00
2022-08-25T09:43:28.134Z,72570.00
2022-08-25T09:44:28.877Z,74625.00
2022-08-25T09:45:27.992Z,76360.00
2022-08-25T09:46:27.943Z,74610.00
2022-08-25T09:47:28.122Z,32159.00
2022-08-25T09:48:28.540Z,33967.00
2022-08-25T09:49:27.744Z,29247.00
2022-08-25T09:50:27.684Z,28971.00
2022-08-25T09:51:27.622Z,23237.00
2022-08-25T09:52:27.539Z,11941.00
2022-08-25T09:53:27.505Z,7428.00
2022-08-25T09:54:36.319Z,6557.00
2022-08-25T09:55:27.369Z,6436.00
2022-08-25T09:56:28.503Z,6620.00
2022-08-25T09:57:27.252Z,6346.00
2022-08-25T09:58:27.193Z,6260.00
2022-08-25T09:59:35.218Z,6302.00
2022-08-25T10:00:27.064Z,6276.00
2022-08-25T10:01:27.041Z,6358.00
2022-08-25T10:02:28.475Z,6375.00
2022-08-25T10:03:26.872Z,6553.00
2022-08-25T10:04:26.820Z,2536.00
2022-08-25T10:05:26.796Z,6468.00
2022-08-25T10:06:26.687Z,75593.00
2022-08-25T10:07:26.642Z,76868.00
2022-08-25T10:08:27.802Z,78007.00
2022-08-25T10:09:26.520Z,78710.00
2022-08-25T10:10:26.446Z,78426.00
2022-08-25T10:11:26.391Z,77238.00
2022-08-25T10:12:27.716Z,78038.00
2022-08-25T10:13:26.278Z,79094.00
2022-08-25T10:14:26.217Z,79536.00
2022-08-25T10:15:29.784Z,76904.00
2022-08-25T10:16:27.810Z,66440.00
2022-08-25T10:17:27.640Z,24800.00
2022-08-25T10:18:26.188Z,9461.00
2022-08-25T10:19:25.917Z,7584.00
2022-08-25T10:20:25.874Z,7220.00
2022-08-25T10:21:25.773Z,6867.00
2022-08-25T10:22:25.707Z,6376.00
2022-08-25T10:23:25.642Z,6542.00
2022-08-25T10:24:25.581Z,6620.00
2022-08-25T10:25:25.531Z,6487.00
2022-08-25T10:26:25.488Z,6258.00
2022-08-25T10:27:28.403Z,5958.00
2022-08-25T10:28:25.380Z,5946.00
2022-08-25T10:29:25.296Z,5881.00
2022-08-25T10:30:25.233Z,6034.00
2022-08-25T10:31:25.232Z,5871.00
2022-08-25T10:32:25.899Z,5796.00
2022-08-25T10:33:25.052Z,5657.00
2022-08-25T10:34:24.990Z,5655.00
2022-08-25T10:35:24.928Z,5832.00
2022-08-25T10:36:24.881Z,5795.00
2022-08-25T10:37:24.805Z,5903.00
2022-08-25T10:38:27.142Z,5898.00
2022-08-25T10:39:33.849Z,5871.00
2022-08-25T10:40:24.717Z,5762.00
2022-08-25T10:41:24.551Z,6174.00
2022-08-25T10:42:25.785Z,6125.00
2022-08-25T10:43:24.441Z,5301.00
2022-08-25T10:44:26.373Z,5137.00
2022-08-25T10:45:24.327Z,5082.00
2022-08-25T10:46:24.312Z,5112.00
2022-08-25T10:47:24.233Z,5097.00
2022-08-25T10:48:24.132Z,4989.00
2022-08-25T10:49:24.089Z,5162.00
2022-08-25T10:50:24.030Z,5008.00
2022-08-25T10:51:25.709Z,5011.00
2022-08-25T10:52:23.887Z,5082.00
2022-08-25T10:53:23.832Z,5515.00
2022-08-25T10:54:23.777Z,3949.00
2022-08-25T10:55:23.711Z,5298.00
2022-08-25T10:56:24.446Z,5052.00
2022-08-25T10:57:23.598Z,4891.00
2022-08-25T10:58:23.537Z,4799.00
2022-08-25T10:59:23.473Z,4774.00
2022-08-25T11:00:23.395Z,4627.00
2022-08-25T11:01:28.663Z,4422.00
2022-08-25T11:02:23.323Z,4403.00
2022-08-25T11:03:23.231Z,4392.00
2022-08-25T11:04:25.422Z,4336.00
2022-08-25T11:05:24.552Z,4284.00
2022-08-25T11:06:23.048Z,4345.00
2022-08-25T11:07:22.972Z,4218.00
2022-08-25T11:08:22.933Z,4084.00
2022-08-25T11:09:22.884Z,4038.00
2022-08-25T11:10:22.810Z,3995.00
2022-08-25T11:11:22.731Z,4161.00
2022-08-25T11:12:22.670Z,4110.00
2022-08-25T11:13:22.616Z,3950.00
2022-08-25T11:14:22.838Z,3989.00
2022-08-25T11:15:22.512Z,3938.00
2022-08-25T11:16:22.468Z,3775.00
2022-08-25T11:17:22.378Z,3631.00
2022-08-25T11:18:22.312Z,3517.00
2022-08-25T11:19:22.258Z,3294.00
2022-08-25T11:20:26.838Z,3279.00
2022-08-25T11:21:22.272Z,3161.00
2022-08-25T11:22:22.071Z,3077.00
2022-08-25T11:23:22.013Z,3125.00
2022-08-25T11:24:22.886Z,3207.00
2022-08-25T11:25:21.868Z,3086.00
2022-08-25T11:26:23.429Z,2928.00
2022-08-25T11:27:21.790Z,2815.00
2022-08-25T11:28:22.270Z,2940.00
2022-08-25T11:29:21.638Z,2641.00
2022-08-25T11:30:21.590Z,2727.00
2022-08-25T11:31:21.767Z,2682.00
2022-08-25T11:32:22.251Z,2721.00
2022-08-25T11:33:21.410Z,2719.00
2022-08-25T11:34:21.329Z,2647.00
2022-08-25T11:35:21.265Z,2670.00
2022-08-25T11:36:21.212Z,2628.00
2022-08-25T11:37:21.162Z,2612.00
2022-08-25T11:38:21.098Z,2624.00
2022-08-25T11:39:21.054Z,2535.00
2022-08-25T11:40:21.025Z,2454.00
2022-08-25T11:41:21.517Z,2364.00
2022-08-25T11:42:20.834Z,2244.00
2022-08-25T11:43:20.783Z,2298.00
2022-08-25T11:44:20.712Z,2258.00
2022-08-25T11:45:20.645Z,2093.00
2022-08-25T11:46:20.618Z,2267.00
2022-08-25T11:47:21.457Z,2146.00
2022-08-25T11:48:20.488Z,2029.00
2022-08-25T11:49:21.810Z,2243.00
2022-08-25T11:50:20.382Z,2137.00
2022-08-25T11:51:20.284Z,2110.00
2022-08-25T11:52:20.251Z,2361.00
2022-08-25T11:53:26.780Z,2217.00
2022-08-25T11:54:20.592Z,2158.00
2022-08-25T11:55:22.824Z,2323.00
2022-08-25T11:56:20.777Z,2257.00
2022-08-25T11:57:19.925Z,2200.00
2022-08-25T11:58:19.859Z,2538.00
2022-08-25T11:59:19.786Z,2452.00
2022-08-25T12:00:19.721Z,1376.00
2022-08-25T12:01:19.705Z,5341.00
2022-08-25T12:02:19.606Z,20844.00
2022-08-25T12:03:19.532Z,18087.00
2022-08-25T12:04:19.540Z,7198.00
2022-08-25T12:05:19.645Z,5910.00
2022-08-25T12:06:19.386Z,12034.00
2022-08-25T12:07:19.294Z,9709.00
2022-08-25T12:08:19.251Z,7174.00
2022-08-25T12:09:19.172Z,7069.00
2022-08-25T12:10:19.107Z,1235.00
2022-08-25T12:11:19.063Z,7616.00
2022-08-25T12:12:18.985Z,9157.00
2022-08-25T12:13:18.907Z,4539.00
2022-08-25T12:14:19.668Z,8348.00
2022-08-25T12:15:18.825Z,9132.00
2022-08-25T12:16:18.758Z,1132.00
2022-08-25T12:17:18.709Z,5304.00
2022-08-25T12:18:18.941Z,21158.00
2022-08-25T12:19:18.604Z,15577.00
2022-08-25T12:20:20.316Z,7782.00
2022-08-25T12:21:18.437Z,4033.00
2022-08-25T12:22:18.376Z,2351.00
2022-08-25T12:23:18.288Z,4001.00
2022-08-25T12:24:18.257Z,3148.00
2022-08-25T12:25:18.206Z,5188.00
2022-08-25T12:26:18.131Z,4627.00
2022-08-25T12:27:18.054Z,3493.00
2022-08-25T12:28:18.233Z,2606.00
2022-08-25T12:29:17.952Z,2140.00
2022-08-25T12:30:21.089Z,3208.00
2022-08-25T12:31:19.091Z,3084.00
2022-08-25T12:32:18.910Z,2660.00
2022-08-25T12:33:17.719Z,3035.00
2022-08-25T12:34:18.406Z,2791.00
2022-08-25T12:35:17.648Z,5109.00
2022-08-25T12:36:18.400Z,3943.00
2022-08-25T12:37:17.465Z,2817.00
2022-08-25T12:38:19.254Z,2982.00
2022-08-25T12:39:19.074Z,2821.00
2022-08-25T12:40:17.356Z,2794.00
2022-08-25T12:41:17.244Z,2695.00
2022-08-25T12:42:19.038Z,2507.00
2022-08-25T12:43:19.689Z,2616.00
2022-08-25T12:44:18.397Z,2849.00
2022-08-25T12:45:16.983Z,2999.00
2022-08-25T12:46:16.981Z,2791.00
2022-08-25T12:47:16.820Z,3579.00
2022-08-25T12:48:17.225Z,4381.00
2022-08-25T12:49:19.005Z,3288.00
2022-08-25T12:50:18.409Z,3889.00
2022-08-25T12:51:17.389Z,1197.00
2022-08-25T12:52:17.524Z,6066.00
2022-08-25T12:53:16.572Z,5563.00